createdAt,value
2022-08-10T00:01:22.163Z,17.8
2022-08-10T00:03:19.545Z,17.7
2022-08-10T00:05:17.221Z,17.5
2022-08-10T00:07:23.349Z,17.5
2022-08-10T00:11:20.026Z,17.4
2022-08-10T00:13:18.103Z,17.4
2022-08-10T00:15:44.433Z,17.4
2022-08-10T00:17:20.315Z,17.4
2022-08-10T00:19:20.045Z,17.6
2022-08-10T00:21:19.736Z,17.5
2022-08-10T00:23:22.119Z,17.2
2022-08-10T00:25:23.072Z,17.2
2022-08-10T00:27:50.284Z,17.2
2022-08-10T00:29:17.249Z,17.3
2022-08-10T00:31:20.102Z,17.2
2022-08-10T00:33:16.736Z,17.1
2022-08-10T00:35:20.097Z,17.1
2022-08-10T00:37:21.348Z,17.1
2022-08-10T00:39:20.017Z,17.1
2022-08-10T00:41:19.978Z,17
2022-08-10T00:43:16.922Z,17.1
2022-08-10T00:45:21.130Z,17.1
2022-08-10T00:47:36.596Z,17.1
2022-08-10T00:49:20.134Z,17
2022-08-10T00:51:22.168Z,17.1
2022-08-10T00:53:19.745Z,16.9
2022-08-10T00:55:17.210Z,16.8
2022-08-10T00:57:20.414Z,16.7
2022-08-10T00:59:20.082Z,16.7
2022-08-10T01:02:08.212Z,16.7
2022-08-10T01:04:36.995Z,16.7
2022-08-10T01:05:20.327Z,16.9
2022-08-10T01:07:17.250Z,16.8
2022-08-10T01:09:21.181Z,16.8
2022-08-10T01:12:27.854Z,16.7
2022-08-10T01:13:21.184Z,16.8
2022-08-10T01:15:18.478Z,16.9
2022-08-10T01:17:19.908Z,16.7
2022-08-10T01:19:19.789Z,16.8
2022-08-10T01:21:20.048Z,16.8
2022-08-10T01:23:20.010Z,16.7
2022-08-10T01:25:20.298Z,16.7
2022-08-10T01:27:20.168Z,16.6
2022-08-10T01:29:17.162Z,16.6
2022-08-10T01:31:23.480Z,16.7
2022-08-10T01:33:20.068Z,16.5
2022-08-10T01:35:19.861Z,16.4
2022-08-10T01:37:20.417Z,16.6
2022-08-10T01:39:20.091Z,16.5
2022-08-10T01:41:18.533Z,16.3
2022-08-10T01:43:19.347Z,16.3
2022-08-10T01:45:20.067Z,16.2
2022-08-10T01:47:22.346Z,16.2
2022-08-10T01:49:20.257Z,16.2
2022-08-10T01:53:20.423Z,16.3
2022-08-10T01:55:21.695Z,16.1
2022-08-10T01:57:20.015Z,16.1
2022-08-10T01:59:19.842Z,16.1
2022-08-10T02:01:22.874Z,16.1
2022-08-10T02:03:19.846Z,16
2022-08-10T02:05:18.514Z,16
2022-08-10T02:07:17.200Z,16.1
2022-08-10T02:09:22.671Z,16
2022-08-10T02:11:26.606Z,15.9
2022-08-10T02:13:20.070Z,15.9
2022-08-10T02:15:17.255Z,16
2022-08-10T02:17:58.761Z,15.9
2022-08-10T02:19:20.819Z,15.8
2022-08-10T02:21:21.682Z,15.8
2022-08-10T02:23:20.032Z,15.9
2022-08-10T02:25:40.193Z,15.7
2022-08-10T02:27:23.193Z,15.8
2022-08-10T02:29:22.618Z,15.8
2022-08-10T02:31:22.290Z,15.9
2022-08-10T02:35:22.142Z,15.6
2022-08-10T02:37:20.000Z,15.6
2022-08-10T02:39:21.831Z,15.6
2022-08-10T02:42:19.167Z,15.5
2022-08-10T02:45:17.177Z,15.6
2022-08-10T02:47:20.155Z,15.6
2022-08-10T02:49:22.988Z,15.6
2022-08-10T02:51:20.052Z,15.5
2022-08-10T02:53:54.232Z,15.4
2022-08-10T02:55:27.025Z,15.4
2022-08-10T02:57:19.785Z,15.4
2022-08-10T02:59:20.088Z,15.5
2022-08-10T03:01:17.206Z,15.4
2022-08-10T03:03:22.675Z,15.3
2022-08-10T03:05:20.069Z,15.2
2022-08-10T03:07:42.727Z,15.4
2022-08-10T03:09:19.831Z,15.3
2022-08-10T03:12:16.690Z,15.5
2022-08-10T03:13:21.392Z,15.4
2022-08-10T03:15:22.237Z,15.5
2022-08-10T03:17:23.306Z,15.6
2022-08-10T03:20:04.177Z,15.4
2022-08-10T03:21:20.029Z,15.3
2022-08-10T03:23:19.879Z,15.4
2022-08-10T03:25:19.988Z,15.2
2022-08-10T03:27:17.221Z,15.2
2022-08-10T03:29:20.913Z,15.4
2022-08-10T03:31:19.997Z,15.5
2022-08-10T03:33:17.216Z,15.3
2022-08-10T03:35:26.393Z,15.3
2022-08-10T03:37:20.130Z,15.2
2022-08-10T03:39:20.426Z,15.1
2022-08-10T03:41:19.808Z,15
2022-08-10T03:43:20.043Z,15.3
2022-08-10T03:45:17.155Z,15.1
2022-08-10T03:47:22.231Z,15.2
2022-08-10T03:49:20.025Z,15.1
2022-08-10T03:51:20.010Z,15
2022-08-10T03:53:24.206Z,15.1
2022-08-10T03:55:28.778Z,15.1
2022-08-10T03:57:20.117Z,15.1
2022-08-10T03:59:20.458Z,15.1
2022-08-10T04:01:19.942Z,15.1
2022-08-10T04:03:19.984Z,15
2022-08-10T04:05:19.820Z,15.1
2022-08-10T04:07:19.791Z,15
2022-08-10T04:09:18.488Z,15.3
2022-08-10T04:12:40.672Z,15.1
2022-08-10T04:14:37.941Z,15.2
2022-08-10T04:16:26.103Z,15.2
2022-08-10T04:18:29.243Z,15
2022-08-10T04:22:25.000Z,15
2022-08-10T04:26:28.975Z,15.3
2022-08-10T04:32:29.093Z,15.2
2022-08-10T04:34:26.114Z,15.3
2022-08-10T04:38:26.114Z,15.4
2022-08-10T04:40:28.917Z,15.2
2022-08-10T04:42:28.870Z,15.4
2022-08-10T04:44:29.284Z,15.3
2022-08-10T04:46:43.122Z,15.7
2022-08-10T04:52:26.109Z,15.6
2022-08-10T04:54:29.858Z,15.5
2022-08-10T04:58:26.436Z,15.7
2022-08-10T05:02:32.047Z,15.7
2022-08-10T05:04:33.718Z,15.7
2022-08-10T05:08:28.889Z,15.8
2022-08-10T05:10:29.476Z,16
2022-08-10T05:16:30.658Z,16.1
2022-08-10T05:18:28.941Z,16.2
2022-08-10T05:20:28.937Z,16.1
2022-08-10T05:22:26.304Z,16.2
2022-08-10T05:24:28.442Z,16.4
2022-08-10T05:26:28.816Z,16.4
2022-08-10T05:28:27.666Z,16.4
2022-08-10T05:30:26.083Z,16.9
2022-08-10T05:32:28.846Z,16.7
2022-08-10T05:34:26.082Z,16.8
2022-08-10T05:36:28.981Z,16.8
2022-08-10T05:38:28.772Z,17
2022-08-10T05:40:24.613Z,17
2022-08-10T05:44:27.748Z,17.1
2022-08-10T05:50:28.964Z,17.5
2022-08-10T05:52:26.209Z,20.1
2022-08-10T05:54:29.446Z,21.1
2022-08-10T05:56:53.021Z,21.1
2022-08-10T05:58:27.716Z,21.1
2022-08-10T06:04:26.971Z,21.4
2022-08-10T06:06:29.027Z,21.5
2022-08-10T06:08:28.901Z,21.5
2022-08-10T06:10:31.728Z,21
2022-08-10T06:12:38.942Z,21.2
2022-08-10T06:14:29.169Z,21.7
2022-08-10T06:16:29.348Z,21.2
2022-08-10T06:20:26.645Z,21.5
2022-08-10T06:22:26.146Z,21.6
2022-08-10T06:24:30.251Z,21.7
2022-08-10T06:26:28.081Z,21.7
2022-08-10T06:28:26.400Z,21.9
2022-08-10T06:34:26.153Z,21.5
2022-08-10T06:38:26.357Z,21.8
2022-08-10T06:40:26.744Z,21.9
2022-08-10T06:44:26.978Z,21.6
2022-08-10T06:46:26.452Z,21.8
2022-08-10T06:48:28.706Z,21.8
2022-08-10T06:52:26.216Z,20.9
2022-08-10T06:54:29.313Z,21.2
2022-08-10T06:58:28.776Z,21.6
2022-08-10T07:00:33.377Z,21.3
2022-08-10T07:02:24.946Z,21.1
2022-08-10T07:04:32.148Z,20.7
2022-08-10T07:06:29.367Z,20.6
2022-08-10T07:08:28.385Z,21.5
2022-08-10T07:10:41.453Z,21.6
2022-08-10T07:14:30.903Z,21.6
2022-08-10T07:16:29.268Z,21.8
2022-08-10T07:23:00.595Z,22.2
2022-08-10T07:24:29.625Z,22.4
2022-08-10T07:26:29.135Z,22.3
2022-08-10T07:28:26.973Z,22.2
2022-08-10T07:30:28.786Z,22.8
2022-08-10T07:32:29.086Z,22.9
2022-08-10T07:34:28.939Z,23.1
2022-08-10T07:38:29.849Z,23
2022-08-10T07:40:24.690Z,23
2022-08-10T07:42:30.268Z,23.1
2022-08-10T07:44:25.894Z,22.7
2022-08-10T07:46:27.089Z,22.6
2022-08-10T07:50:33.089Z,22.7
2022-08-10T07:52:26.450Z,22.7
2022-08-10T07:56:47.730Z,23.1
2022-08-10T07:58:29.278Z,23.2
2022-08-10T08:00:28.388Z,23.2
2022-08-10T08:02:26.258Z,23.4
2022-08-10T08:04:26.178Z,23
2022-08-10T08:10:26.202Z,23.6
2022-08-10T08:14:28.460Z,23.6
2022-08-10T08:16:26.631Z,23.6
2022-08-10T08:18:28.950Z,23.8
2022-08-10T08:20:29.784Z,23.9
2022-08-10T08:24:03.359Z,23.9
2022-08-10T08:24:33.227Z,23.9
2022-08-10T08:26:30.339Z,23.7
2022-08-10T08:28:26.155Z,23.6
2022-08-10T08:30:26.649Z,23.8
2022-08-10T08:32:29.294Z,23.9
2022-08-10T08:34:25.712Z,23.9
2022-08-10T08:36:28.912Z,23.9
2022-08-10T08:38:30.018Z,23.9
2022-08-10T08:40:25.958Z,23.8
2022-08-10T08:42:23.320Z,23.8
2022-08-10T08:44:32.901Z,23.8
2022-08-10T08:46:26.054Z,23.9
2022-08-10T08:48:28.876Z,24.1
2022-08-10T08:50:28.826Z,24
2022-08-10T08:52:28.889Z,24.1
2022-08-10T08:56:28.858Z,24.2
2022-08-10T08:58:26.229Z,24.3
2022-08-10T09:02:28.866Z,24.5
2022-08-10T09:04:26.172Z,24.6
2022-08-10T09:08:26.086Z,24.4
2022-08-10T09:10:31.038Z,24.5
2022-08-10T09:16:26.151Z,24.3
2022-08-10T09:18:29.300Z,24.4
2022-08-10T09:22:26.082Z,24.1
2022-08-10T09:24:26.204Z,24.1
2022-08-10T09:26:28.121Z,23.8
2022-08-10T09:28:29.261Z,24
2022-08-10T09:30:31.205Z,24
2022-08-10T09:36:18.787Z,24
2022-08-10T09:36:32.728Z,24.3
2022-08-10T09:40:58.768Z,24.5
2022-08-10T09:42:28.042Z,24.7
2022-08-10T09:44:26.126Z,24.5
2022-08-10T09:46:23.330Z,24.7
2022-08-10T09:48:25.833Z,24.8
2022-08-10T09:52:26.177Z,24.8
2022-08-10T09:54:27.622Z,24.6
2022-08-10T09:56:29.064Z,24.5
2022-08-10T09:58:28.765Z,24.5
2022-08-10T10:00:28.982Z,24.6
2022-08-10T10:02:28.560Z,24.7
2022-08-10T10:04:26.499Z,24.9
2022-08-10T10:06:24.770Z,24.8
2022-08-10T10:10:26.123Z,25
2022-08-10T10:12:26.168Z,24.8
2022-08-10T10:14:25.906Z,24.8
2022-08-10T10:16:26.493Z,24.9
2022-08-10T10:18:26.507Z,24.9
2022-08-10T10:20:26.181Z,25
2022-08-10T10:22:26.215Z,25
2022-08-10T10:24:25.551Z,24.8
2022-08-10T10:26:29.253Z,24.7
2022-08-10T10:28:31.723Z,24.9
2022-08-10T10:32:24.541Z,24.9
2022-08-10T10:34:25.967Z,24.8
2022-08-10T10:38:28.210Z,24.8
2022-08-10T10:40:27.762Z,25.1
2022-08-10T10:42:44.090Z,25.2
2022-08-10T10:44:30.624Z,25.2
2022-08-10T10:46:29.234Z,25.4
2022-08-10T10:48:27.566Z,25.4
2022-08-10T10:50:28.590Z,25.2
2022-08-10T10:52:27.811Z,25
2022-08-10T10:54:29.475Z,25.1
2022-08-10T10:56:29.846Z,24.9
2022-08-10T10:58:28.389Z,25
2022-08-10T11:00:29.511Z,24.8
2022-08-10T11:02:26.088Z,24.8
2022-08-10T11:04:26.174Z,24.9
2022-08-10T11:08:28.935Z,24.7
2022-08-10T11:10:31.483Z,25.1
2022-08-10T11:14:29.715Z,25
2022-08-10T11:16:30.473Z,25.2
2022-08-10T11:18:26.589Z,25.3
2022-08-10T11:20:26.015Z,25.2
2022-08-10T11:22:23.371Z,25.2
2022-08-10T11:24:42.461Z,25.5
2022-08-10T11:26:29.475Z,25.4
2022-08-10T11:28:26.303Z,25.2
2022-08-10T11:30:26.946Z,25
2022-08-10T11:34:47.942Z,25.2
2022-08-10T11:36:29.748Z,25.2
2022-08-10T11:38:29.894Z,25.3
2022-08-10T11:40:29.013Z,25.3
2022-08-10T11:42:35.098Z,25.5
2022-08-10T11:44:26.445Z,25.4
2022-08-10T11:46:28.549Z,25.2
2022-08-10T11:50:26.271Z,25.3
2022-08-10T11:52:26.223Z,25.6
2022-08-10T11:54:28.936Z,25.7
2022-08-10T11:56:28.494Z,25.7
2022-08-10T11:58:28.340Z,25.8
2022-08-10T12:00:29.579Z,25.4
2022-08-10T12:02:24.291Z,25.2
2022-08-10T12:04:28.322Z,25.3
2022-08-10T12:06:53.979Z,25.5
2022-08-10T12:10:25.844Z,25.2
2022-08-10T12:14:28.541Z,25.3
2022-08-10T12:16:26.072Z,25.4
2022-08-10T12:18:26.147Z,25.4
2022-08-10T12:20:29.040Z,25.4
2022-08-10T12:22:28.859Z,25.5
2022-08-10T12:24:30.894Z,25.7
2022-08-10T12:26:29.020Z,25.7
2022-08-10T12:28:29.139Z,25.8
2022-08-10T12:30:29.125Z,25.8
2022-08-10T12:32:28.174Z,25.7
2022-08-10T12:34:26.142Z,25.9
2022-08-10T12:36:29.060Z,26
2022-08-10T12:38:27.264Z,26
2022-08-10T12:40:35.414Z,26.1
2022-08-10T12:42:38.660Z,25.6
2022-08-10T12:44:40.995Z,25.8
2022-08-10T12:46:25.772Z,25.6
2022-08-10T12:48:30.954Z,25.7
2022-08-10T12:50:31.723Z,25.8
2022-08-10T12:52:26.195Z,26
2022-08-10T12:58:58.573Z,26
2022-08-10T13:00:28.987Z,25.7
2022-08-10T13:02:26.926Z,25.8
2022-08-10T13:04:29.111Z,26
2022-08-10T13:06:28.240Z,26
2022-08-10T13:08:28.613Z,25.9
2022-08-10T13:10:26.416Z,25.9
2022-08-10T13:12:37.594Z,25.9
2022-08-10T13:14:29.808Z,26
2022-08-10T13:16:31.082Z,25.8
2022-08-10T13:18:26.163Z,26
2022-08-10T13:20:28.734Z,26.1
2022-08-10T13:22:24.682Z,26.1
2022-08-10T13:26:26.855Z,26.2
2022-08-10T13:28:35.088Z,26
2022-08-10T13:30:35.474Z,26
2022-08-10T13:32:26.494Z,25.9
2022-08-10T13:34:42.081Z,26
2022-08-10T13:36:26.252Z,26.1
2022-08-10T13:38:29.310Z,26
2022-08-10T13:40:29.157Z,26.1
2022-08-10T13:44:25.935Z,26.2
2022-08-10T13:46:30.527Z,26.3
2022-08-10T13:50:33.805Z,26.3
2022-08-10T13:54:32.494Z,26.2
2022-08-10T13:58:27.901Z,26.1
2022-08-10T14:00:33.165Z,26.1
2022-08-10T14:02:26.284Z,26.2
2022-08-10T14:04:26.142Z,26.2
2022-08-10T14:06:29.410Z,26.2
2022-08-10T14:08:29.487Z,26.2
2022-08-10T14:11:01.487Z,26.3
2022-08-10T14:12:32.080Z,26.4
2022-08-10T14:14:29.042Z,26.1
2022-08-10T14:16:26.185Z,26
2022-08-10T14:18:27.759Z,26
2022-08-10T14:20:26.216Z,25.9
2022-08-10T14:22:33.517Z,26
2022-08-10T14:24:27.139Z,26.1
2022-08-10T14:26:26.350Z,26.2
2022-08-10T14:28:26.305Z,26.2
2022-08-10T14:30:30.768Z,26.3
2022-08-10T14:32:25.951Z,26.2
2022-08-10T14:34:59.680Z,26.2
2022-08-10T14:36:28.707Z,26
2022-08-10T14:38:29.475Z,26
2022-08-10T14:40:26.261Z,26.1
2022-08-10T14:42:28.309Z,26.3
2022-08-10T14:44:26.226Z,26.3
2022-08-10T14:46:26.186Z,26.3
2022-08-10T14:48:29.826Z,26.3
2022-08-10T14:50:31.983Z,26.2
2022-08-10T14:52:26.737Z,26.2
2022-08-10T14:54:28.878Z,26.1
2022-08-10T14:56:30.891Z,26.1
2022-08-10T14:58:29.089Z,26.1
2022-08-10T15:00:32.937Z,26.1
2022-08-10T15:02:39.427Z,26.2
2022-08-10T15:04:24.683Z,26.2
2022-08-10T15:06:30.513Z,26.1
2022-08-10T15:08:28.669Z,26
2022-08-10T15:10:32.452Z,26
2022-08-10T15:12:26.567Z,26
2022-08-10T15:14:39.499Z,26
2022-08-10T15:16:26.192Z,26
2022-08-10T15:18:26.768Z,26
2022-08-10T15:22:36.912Z,26
2022-08-10T15:24:27.739Z,26
2022-08-10T15:26:27.380Z,26.1
2022-08-10T15:28:30.639Z,26.1
2022-08-10T15:30:29.676Z,26
2022-08-10T15:32:25.629Z,26.1
2022-08-10T15:34:28.752Z,26.2
2022-08-10T15:36:29.642Z,26.2
2022-08-10T15:38:31.750Z,26.1
2022-08-10T15:40:30.913Z,26.1
2022-08-10T15:42:29.488Z,26.1
2022-08-10T15:44:27.268Z,26.1
2022-08-10T15:46:29.591Z,26.1
2022-08-10T15:48:28.402Z,26.2
2022-08-10T15:50:29.302Z,26.2
2022-08-10T15:52:38.871Z,26.1
2022-08-10T15:54:32.979Z,26
2022-08-10T15:56:27.811Z,26
2022-08-10T15:58:30.188Z,26
2022-08-10T16:00:24.596Z,25.9
2022-08-10T16:02:26.301Z,26
2022-08-10T16:04:31.611Z,26
2022-08-10T16:06:25.318Z,26
2022-08-10T16:10:28.515Z,26
2022-08-10T16:12:29.573Z,26
2022-08-10T16:16:26.221Z,26.1
2022-08-10T16:18:26.271Z,26
2022-08-10T16:20:24.876Z,26
2022-08-10T16:22:34.555Z,26
2022-08-10T16:24:32.467Z,26
2022-08-10T16:26:28.443Z,25.9
2022-08-10T16:28:26.221Z,25.9
2022-08-10T16:32:27.279Z,25.9
2022-08-10T16:34:26.447Z,25.9
2022-08-10T16:36:28.181Z,25.7
2022-08-10T16:38:26.188Z,25.8
2022-08-10T16:40:26.232Z,25.8
2022-08-10T16:42:26.813Z,25.9
2022-08-10T16:44:29.102Z,25.7
2022-08-10T16:46:23.467Z,25.7
2022-08-10T16:48:33.254Z,25.7
2022-08-10T16:50:25.712Z,25.7
2022-08-10T16:52:26.247Z,25.6
2022-08-10T16:54:27.457Z,25.7
2022-08-10T16:56:27.564Z,25.7
2022-08-10T16:58:24.726Z,25.7
2022-08-10T17:02:24.595Z,25.7
2022-08-10T17:04:26.199Z,25.7
2022-08-10T17:06:26.351Z,25.6
2022-08-10T17:10:25.301Z,25.6
2022-08-10T17:12:27.976Z,25.6
2022-08-10T17:14:23.363Z,25.6
2022-08-10T17:16:26.272Z,25.6
2022-08-10T17:18:24.959Z,25.5
2022-08-10T17:20:31.265Z,25.3
2022-08-10T17:22:26.478Z,25.3
2022-08-10T17:24:25.941Z,25.4
2022-08-10T17:26:35.487Z,25.3
2022-08-10T17:28:33.482Z,25.3
2022-08-10T17:30:30.058Z,25.4
2022-08-10T17:32:29.840Z,25.4
2022-08-10T17:34:28.782Z,25.4
2022-08-10T17:36:23.386Z,25.3
2022-08-10T17:38:26.213Z,25.3
2022-08-10T17:40:24.756Z,25.3
2022-08-10T17:42:29.129Z,25.3
2022-08-10T17:44:26.075Z,25.3
2022-08-10T17:46:29.228Z,25.1
2022-08-10T17:48:26.286Z,25
2022-08-10T17:50:27.998Z,24.8
2022-08-10T17:52:27.790Z,24.7
2022-08-10T17:54:26.498Z,24.5
2022-08-10T17:56:27.427Z,24.5
2022-08-10T17:58:26.249Z,24.6
2022-08-10T18:00:25.949Z,24.4
2022-08-10T18:02:26.275Z,24.3
2022-08-10T18:04:26.316Z,24.2
2022-08-10T18:06:23.392Z,24.2
2022-08-10T18:08:25.973Z,24
2022-08-10T18:10:29.376Z,24
2022-08-10T18:12:34.676Z,23.9
2022-08-10T18:14:24.893Z,23.9
2022-08-10T18:16:26.518Z,23.8
2022-08-10T18:18:28.050Z,23.7
2022-08-10T18:20:28.665Z,23.7
2022-08-10T18:22:26.282Z,23.6
2022-08-10T18:24:29.189Z,23.5
2022-08-10T18:26:22.939Z,23.5
2022-08-10T18:28:22.937Z,23.3
2022-08-10T18:30:27.994Z,23.1
2022-08-10T18:32:26.497Z,22.9
2022-08-10T18:34:29.393Z,22.8
2022-08-10T18:36:26.299Z,22.6
2022-08-10T18:40:35.863Z,22.5
2022-08-10T18:42:28.859Z,22.5
2022-08-10T18:44:29.767Z,22.3
2022-08-10T18:46:25.982Z,22.1
2022-08-10T18:50:27.398Z,22.2
2022-08-10T18:52:26.272Z,22.4
2022-08-10T18:54:31.273Z,22.3
2022-08-10T18:56:29.016Z,22.2
2022-08-10T18:58:26.471Z,22.2
2022-08-10T19:00:25.194Z,22.1
2022-08-10T19:04:28.497Z,21.9
2022-08-10T19:08:29.853Z,21.8
2022-08-10T19:27:05.903Z,21.6
2022-08-10T19:29:02.966Z,21.5
2022-08-10T19:31:00.817Z,21.5
2022-08-10T19:33:05.755Z,21.4
2022-08-10T19:35:05.350Z,21.4
2022-08-10T19:37:05.358Z,21.4
2022-08-10T19:39:04.513Z,21.3
2022-08-10T19:41:09.737Z,21.3
2022-08-10T19:43:02.909Z,21.4
2022-08-10T19:45:06.163Z,21.3
2022-08-10T19:47:05.260Z,21.1
2022-08-10T19:49:02.967Z,21.1
2022-08-10T19:51:08.894Z,21
2022-08-10T19:53:04.968Z,21
2022-08-10T19:55:05.049Z,21
2022-08-10T19:57:02.854Z,21
2022-08-10T19:59:03.696Z,21
2022-08-10T20:01:05.354Z,21.1
2022-08-10T20:03:04.073Z,21
2022-08-10T20:05:05.573Z,20.9
2022-08-10T20:07:04.509Z,20.8
2022-08-10T20:09:05.652Z,20.7
2022-08-10T20:11:04.187Z,20.8
2022-08-10T20:13:05.645Z,20.7
2022-08-10T20:15:03.070Z,20.7
2022-08-10T20:17:02.969Z,20.6
2022-08-10T20:19:02.983Z,20.5
2022-08-10T20:21:05.202Z,20.4
2022-08-10T20:23:05.039Z,20.5
2022-08-10T20:25:04.281Z,20.5
2022-08-10T20:27:18.303Z,20.5
2022-08-10T20:29:04.384Z,20.4
2022-08-10T20:31:02.951Z,20.3
2022-08-10T20:33:03.729Z,20.2
2022-08-10T20:35:03.468Z,20.3
2022-08-10T20:37:03.859Z,20.4
2022-08-10T20:39:05.083Z,20.4
2022-08-10T20:41:02.940Z,20.4
2022-08-10T20:43:03.126Z,20.4
2022-08-10T20:45:06.143Z,20.4
2022-08-10T20:47:04.714Z,20.4
2022-08-10T20:49:01.492Z,20.4
2022-08-10T20:51:04.031Z,20.4
2022-08-10T20:53:05.101Z,20.3
2022-08-10T20:55:04.692Z,20.2
2022-08-10T20:57:04.010Z,20.2
2022-08-10T20:59:09.237Z,20.3
2022-08-10T21:01:04.958Z,20.2
2022-08-10T21:03:06.742Z,20.1
2022-08-10T21:05:06.124Z,20
2022-08-10T21:07:02.956Z,20
2022-08-10T21:09:05.865Z,20
2022-08-10T21:11:02.742Z,19.9
2022-08-10T21:13:05.188Z,19.9
2022-08-10T21:15:02.959Z,19.9
2022-08-10T21:17:05.751Z,19.8
2022-08-10T21:19:06.002Z,19.6
2022-08-10T21:21:06.116Z,19.5
2022-08-10T21:25:04.801Z,19.3
2022-08-10T21:27:08.022Z,19.2
2022-08-10T21:29:03.384Z,19
2022-08-10T21:31:03.744Z,18.9
2022-08-10T21:33:04.319Z,18.9
2022-08-10T21:35:05.262Z,18.8
2022-08-10T21:37:03.758Z,18.8
2022-08-10T21:39:06.816Z,18.7
2022-08-10T21:41:17.239Z,18.6
2022-08-10T21:43:02.904Z,18.6
2022-08-10T21:45:04.108Z,18.6
2022-08-10T21:47:09.452Z,18.6
2022-08-10T21:49:03.162Z,18.7
2022-08-10T21:51:05.878Z,18.6
2022-08-10T21:53:04.847Z,18.8
2022-08-10T21:55:05.129Z,18.7
2022-08-10T21:57:05.082Z,18.6
2022-08-10T21:59:04.590Z,18.5
2022-08-10T22:01:01.323Z,18.4
2022-08-10T22:03:04.777Z,18.2
2022-08-10T22:05:05.330Z,18.1
2022-08-10T22:07:03.579Z,18.2
2022-08-10T22:09:02.901Z,18.2
2022-08-10T22:11:04.573Z,18.1
2022-08-10T22:13:03.223Z,18.2
2022-08-10T22:15:02.980Z,18.1
2022-08-10T22:17:05.668Z,18.1
2022-08-10T22:19:03.986Z,18.2
2022-08-10T22:21:03.125Z,18
2022-08-10T22:25:06.088Z,18
2022-08-10T22:27:05.848Z,17.9
2022-08-10T22:29:06.124Z,18
2022-08-10T22:31:26.520Z,19.6
2022-08-10T22:31:26.775Z,18.1
2022-08-10T22:31:30.545Z,17.9
2022-08-10T22:33:06.053Z,17.9
2022-08-10T22:35:03.324Z,18.1
2022-08-10T22:37:03.012Z,17.9
2022-08-10T22:39:05.379Z,17.9
2022-08-10T22:41:04.059Z,17.9
2022-08-10T22:43:09.709Z,18
2022-08-10T22:45:05.351Z,17.9
2022-08-10T22:47:03.299Z,17.8
2022-08-10T22:49:06.357Z,17.7
2022-08-10T22:51:03.261Z,17.8
2022-08-10T22:53:04.454Z,17.9
2022-08-10T22:55:06.125Z,17.7
2022-08-10T22:57:03.047Z,17.6
2022-08-10T22:59:05.213Z,17.8
2022-08-10T23:01:05.510Z,17.7
2022-08-10T23:03:03.085Z,17.8
2022-08-10T23:05:04.268Z,17.6
2022-08-10T23:07:05.195Z,17.5
2022-08-10T23:09:02.919Z,17.5
2022-08-10T23:11:05.287Z,17.4
2022-08-10T23:13:00.891Z,17.6
2022-08-10T23:15:04.699Z,17.4
2022-08-10T23:17:04.540Z,17.4
2022-08-10T23:19:03.776Z,17.3
2022-08-10T23:21:04.666Z,17.3
2022-08-10T23:23:07.547Z,17.3
2022-08-10T23:25:09.211Z,17.3
2022-08-10T23:27:09.044Z,17.2
2022-08-10T23:29:05.528Z,17.2
2022-08-10T23:31:03.887Z,17.1
2022-08-10T23:36:05.184Z,17.1
2022-08-10T23:37:02.938Z,17.1
2022-08-10T23:39:24.233Z,17
2022-08-10T23:41:01.180Z,17.1
2022-08-10T23:43:02.979Z,17.1
2022-08-10T23:45:03.071Z,17
2022-08-10T23:47:04.578Z,17
2022-08-10T23:49:04.952Z,17
2022-08-10T23:51:03.015Z,17.1
2022-08-10T23:53:13.269Z,16.8
2022-08-10T23:55:02.998Z,17
2022-08-10T23:57:05.476Z,17
2022-08-10T23:59:03.569Z,16.9
